Time;durP1;ratioP1;P1;durP2;ratioP2;P2;SDS_P1;SDS_P2;PMS_P1;PMS_P2;Temp;Humidity;BMP_temperature;BMP_pressure;BME280_temperature;BME280_humidity;BME280_pressure;Samples;Min_cycle;Max_cycle;Signal;HPM_P1;HPM_P2
2022/08/18 00:00:31;;;;;;;;;;;;;;;18.34;100.00;101074.88;1016318;29;20009;-75
2022/08/18 00:01:04;;;;;;;;;;;;;;;18.32;100.00;101082.41;1013868;29;19931;-75
2022/08/18 00:01:39;;;;;;;;;;;;;;;18.32;100.00;101077.00;1016157;29;19923;-75
2022/08/18 00:02:38;;;;;;;;;;;;;;;18.32;100.00;101082.41;1017351;29;19930;-75
2022/08/18 00:03:13;;;;;;;;;;;;;;;18.29;100.00;101074.84;1023695;28;20410;-75
2022/08/18 00:04:05;;;;;;;;;;;;;;;18.25;100.00;101076.44;1028090;28;19922;-75
2022/08/18 00:04:58;;;;;;;;;;;;;;;18.21;100.00;101076.97;1028699;28;19930;-75
2022/08/18 00:05:29;;;;;;;;;;;;;;;18.20;100.00;101074.53;1027864;28;20358;-75
2022/08/18 00:06:01;;;;;;;;;;;;;;;18.17;100.00;101078.56;1024008;29;19930;-75
2022/08/18 00:06:33;;;;;;;;;;;;;;;18.15;100.00;101083.41;1022084;29;19923;-75
2022/08/18 00:07:05;;;;;;;;;;;;;;;18.13;100.00;101082.03;1020815;29;19930;-75
2022/08/18 00:07:37;;;;;;;;;;;;;;;18.11;100.00;101082.31;1023268;29;19922;-75
2022/08/18 00:08:08;;;;;;;;;;;;;;;18.09;100.00;101089.84;1020089;29;19922;-75
2022/08/18 00:08:40;;;;;;;;;;;;;;;18.07;100.00;101081.19;1020044;29;19927;-75
2022/08/18 00:09:11;;;;;;;;;;;;;;;18.06;100.00;101079.56;1019965;29;19983;-75
2022/08/18 00:09:43;;;;;;;;;;;;;;;18.04;100.00;101081.69;1020489;29;19987;-74
2022/08/18 00:10:14;;;;;;;;;;;;;;;18.04;100.00;101084.41;1024194;28;19940;-75
2022/08/18 00:10:49;;;;;;;;;;;;;;;18.01;100.00;101097.59;1024408;28;20424;-74
2022/08/18 00:11:20;;;;;;;;;;;;;;;18.00;100.00;101083.28;1024719;28;19931;-74
2022/08/18 00:11:52;;;;;;;;;;;;;;;17.99;100.00;101087.06;1020061;29;19933;-75
2022/08/18 00:12:28;;;;;;;;;;;;;;;17.98;100.00;101088.13;1020193;29;20017;-75
2022/08/18 00:12:59;;;;;;;;;;;;;;;17.97;100.00;101085.69;1022240;29;19922;-75
2022/08/18 00:13:32;;;;;;;;;;;;;;;17.99;100.00;101078.16;1025084;28;19922;-74
2022/08/18 00:14:03;;;;;;;;;;;;;;;18.00;100.00;101086.00;1028359;28;19929;-75
2022/08/18 00:14:35;;;;;;;;;;;;;;;18.01;100.00;101093.00;1029071;28;19922;-75
2022/08/18 00:15:07;;;;;;;;;;;;;;;18.02;100.00;101091.94;1028119;28;19922;-75
2022/08/18 00:15:39;;;;;;;;;;;;;;;18.04;100.00;101084.41;1027827;28;20299;-75
2022/08/18 00:16:19;;;;;;;;;;;;;;;18.05;100.00;101083.31;1027938;28;19922;-75
2022/08/18 00:16:52;;;;;;;;;;;;;;;18.05;100.00;101090.59;1027918;28;19926;-74
2022/08/18 00:17:23;;;;;;;;;;;;;;;18.05;100.00;101083.31;1028099;28;19922;-74
2022/08/18 00:17:55;;;;;;;;;;;;;;;18.06;100.00;101093.03;1021781;28;20299;-75
2022/08/18 00:18:26;;;;;;;;;;;;;;;18.05;100.00;101088.72;1023414;28;19934;-75
2022/08/18 00:18:59;;;;;;;;;;;;;;;18.00;100.00;101094.06;1024229;28;21213;-75
2022/08/18 00:19:30;;;;;;;;;;;;;;;18.02;100.00;101091.94;1024315;28;20310;-75
2022/08/18 00:20:20;;;;;;;;;;;;;;;18.05;100.00;101099.50;1027444;28;20344;-75
2022/08/18 00:20:51;;;;;;;;;;;;;;;18.00;100.00;101102.16;1027737;28;19922;-75
2022/08/18 00:21:23;;;;;;;;;;;;;;;18.00;100.00;101094.06;1028079;28;19957;-75
2022/08/18 00:21:54;;;;;;;;;;;;;;;17.99;100.00;101105.94;1027501;28;20321;-75
2022/08/18 00:22:26;;;;;;;;;;;;;;;18.01;100.00;101101.09;1023872;29;19923;-75
2022/08/18 00:22:57;;;;;;;;;;;;;;;18.03;100.00;101107.03;1021650;29;19930;-75
2022/08/18 00:23:30;;;;;;;;;;;;;;;17.98;100.00;101098.91;1020099;28;19923;-75
2022/08/18 00:24:02;;;;;;;;;;;;;;;17.98;100.00;101098.91;1019518;29;19923;-75
2022/08/18 00:24:33;;;;;;;;;;;;;;;17.98;100.00;101100.81;1015820;29;19971;-75
2022/08/18 00:25:05;;;;;;;;;;;;;;;17.95;100.00;101104.03;1016268;29;20389;-75
2022/08/18 00:25:37;;;;;;;;;;;;;;;17.92;100.00;101105.34;1016063;29;19978;-75
2022/08/18 00:26:09;;;;;;;;;;;;;;;17.95;100.00;101099.44;1016489;29;19923;-75
2022/08/18 00:26:40;;;;;;;;;;;;;;;17.96;100.00;101109.16;1020938;29;19930;-75
2022/08/18 00:27:20;;;;;;;;;;;;;;;18.00;100.00;101101.34;1026131;28;19922;-75
2022/08/18 00:27:52;;;;;;;;;;;;;;;18.01;100.00;101109.19;1027850;28;19926;-75
2022/08/18 00:28:23;;;;;;;;;;;;;;;18.02;100.00;101110.00;1027454;28;19928;-75
2022/08/18 00:28:55;;;;;;;;;;;;;;;17.99;100.00;101105.94;1024147;29;19923;-75
2022/08/18 00:29:26;;;;;;;;;;;;;;;17.94;100.00;101107.78;1014746;29;19927;-75
2022/08/18 00:30:01;;;;;;;;;;;;;;;17.96;100.00;101105.63;1019883;29;19922;-74
2022/08/18 00:30:33;;;;;;;;;;;;;;;18.02;100.00;101102.72;1015967;29;19923;-75
2022/08/18 00:31:05;;;;;;;;;;;;;;;17.99;100.00;101100.53;1018575;29;20461;-75
2022/08/18 00:31:36;;;;;;;;;;;;;;;17.96;100.00;101101.06;1015966;29;19934;-75
2022/08/18 00:32:12;;;;;;;;;;;;;;;17.96;100.00;101106.44;1015870;29;20264;-75
2022/08/18 00:32:48;;;;;;;;;;;;;;;17.97;100.00;101102.69;1011864;29;20123;-75
2022/08/18 00:33:19;;;;;;;;;;;;;;;17.96;100.00;101106.44;1013668;29;20471;-75
2022/08/18 00:33:54;;;;;;;;;;;;;;;17.93;100.00;101101.59;1016164;29;19922;-75
2022/08/18 00:34:25;;;;;;;;;;;;;;;17.94;100.00;101102.41;1020675;28;19930;-75
2022/08/18 00:35:09;;;;;;;;;;;;;;;17.95;100.00;101094.06;1027612;28;19949;-75
2022/08/18 00:35:40;;;;;;;;;;;;;;;17.94;100.00;101100.50;1020295;29;19923;-75
2022/08/18 00:36:12;;;;;;;;;;;;;;;17.95;100.00;101104.81;1019689;29;19923;-75
2022/08/18 00:36:43;;;;;;;;;;;;;;;17.96;100.00;101101.06;1015913;29;19969;-75
2022/08/18 00:37:15;;;;;;;;;;;;;;;17.97;100.00;101097.28;1015698;29;19967;-75
2022/08/18 00:37:47;;;;;;;;;;;;;;;17.97;100.00;101102.69;1015795;29;19923;-75
2022/08/18 00:38:18;;;;;;;;;;;;;;;17.95;100.00;101104.81;1016089;29;19931;-74
2022/08/18 00:38:55;;;;;;;;;;;;;;;17.96;100.00;101098.38;1018588;29;19978;-75
2022/08/18 00:39:29;;;;;;;;;;;;;;;17.98;100.00;101098.09;1020100;29;20504;-74
2022/08/18 00:40:06;;;;;;;;;;;;;;;17.97;100.00;101099.19;1024059;28;19922;-75
2022/08/18 00:40:39;;;;;;;;;;;;;;;17.95;100.00;101098.63;1024011;29;19923;-75
2022/08/18 00:41:14;;;;;;;;;;;;;;;17.98;100.00;101103.50;1023057;29;20310;-74
2022/08/18 00:41:45;;;;;;;;;;;;;;;17.97;100.00;101102.69;1023204;29;19974;-75
2022/08/18 00:42:19;;;;;;;;;;;;;;;17.99;100.00;101108.63;1025303;28;20365;-75
2022/08/18 00:43:03;;;;;;;;;;;;;;;18.00;100.00;101104.84;1022272;29;20005;-74
2022/08/18 00:43:38;;;;;;;;;;;;;;;18.00;100.00;101102.16;1020217;29;19955;-74
2022/08/18 00:44:10;;;;;;;;;;;;;;;18.04;100.00;101108.66;1020112;29;19930;-75
2022/08/18 00:44:41;;;;;;;;;;;;;;;18.02;100.00;101100.03;1020038;29;19938;-75
2022/08/18 00:45:15;;;;;;;;;;;;;;;18.02;100.00;101101.91;1016168;29;19923;-75
2022/08/18 00:45:47;;;;;;;;;;;;;;;18.04;100.00;101108.66;1017067;29;20969;-75
2022/08/18 00:46:20;;;;;;;;;;;;;;;18.00;100.00;101112.13;1020185;29;19922;-75
2022/08/18 00:46:52;;;;;;;;;;;;;;;18.04;100.00;101107.84;1021215;29;20330;-75
2022/08/18 00:47:27;;;;;;;;;;;;;;;18.02;100.00;101105.41;1019584;29;19929;-75
2022/08/18 00:48:12;;;;;;;;;;;;;;;17.98;100.00;101116.97;1022452;29;19923;-75
2022/08/18 00:48:44;;;;;;;;;;;;;;;17.99;100.00;101111.31;1023745;28;19923;-75
2022/08/18 00:49:19;;;;;;;;;;;;;;;18.00;100.00;101115.63;1027473;28;20341;-75
2022/08/18 00:49:50;;;;;;;;;;;;;;;18.02;100.00;101116.19;1028259;28;19953;-75
2022/08/18 00:50:22;;;;;;;;;;;;;;;17.98;100.00;101115.09;1028072;28;19922;-75
2022/08/18 00:50:58;;;;;;;;;;;;;;;18.00;100.00;101112.94;1028290;28;19929;-75
2022/08/18 00:51:36;;;;;;;;;;;;;;;18.05;100.00;101115.66;1023574;29;19922;-75
2022/08/18 00:52:08;;;;;;;;;;;;;;;18.03;100.00;101115.13;1024087;29;19922;-75
2022/08/18 00:52:40;;;;;;;;;;;;;;;18.04;100.00;101110.53;1019936;29;19923;-75
2022/08/18 00:53:13;;;;;;;;;;;;;;;18.04;100.00;101115.94;1017685;29;19930;-75
2022/08/18 00:53:53;;;;;;;;;;;;;;;18.04;100.00;101119.44;1019669;29;20405;-75
2022/08/18 00:54:25;;;;;;;;;;;;;;;18.07;100.00;101115.41;1016152;29;19962;-75
2022/08/18 00:54:59;;;;;;;;;;;;;;;18.10;100.00;101113.03;1020329;29;19994;-74
2022/08/18 00:55:31;;;;;;;;;;;;;;;18.05;100.00;101110.28;1023571;29;19930;-74
2022/08/18 00:56:04;;;;;;;;;;;;;;;18.08;100.00;101115.19;1021546;29;19929;-75
2022/08/18 00:56:46;;;;;;;;;;;;;;;18.07;100.00;101112.72;1020271;29;20386;-75
2022/08/18 00:57:20;;;;;;;;;;;;;;;18.10;100.00;101113.03;1022107;29;19923;-74
2022/08/18 00:57:52;;;;;;;;;;;;;;;18.12;100.00;101100.09;1022566;29;20342;-75
2022/08/18 00:58:29;;;;;;;;;;;;;;;18.13;100.00;101096.34;1023937;29;19929;-75
2022/08/18 00:59:13;;;;;;;;;;;;;;;18.11;100.00;101098.47;1023885;29;19922;-75
2022/08/18 00:59:47;;;;;;;;;;;;;;;18.13;100.00;101101.72;1023585;29;19922;-74
2022/08/18 01:00:18;;;;;;;;;;;;;;;18.09;100.00;101100.63;1016042;29;20014;-74
2022/08/18 01:00:50;;;;;;;;;;;;;;;18.10;100.00;101096.88;1012045;29;19927;-75
2022/08/18 01:01:22;;;;;;;;;;;;;;;18.07;100.00;101110.03;1013059;29;20018;-75
2022/08/18 01:01:54;;;;;;;;;;;;;;;18.04;100.00;101111.34;1017072;29;19930;-74
2022/08/18 01:02:29;;;;;;;;;;;;;;;18.02;100.00;101105.41;1024513;28;20045;-75
2022/08/18 01:03:02;;;;;;;;;;;;;;;18.02;100.00;101116.19;1027850;28;19926;-75
2022/08/18 01:03:35;;;;;;;;;;;;;;;18.02;100.00;101113.50;1023274;29;19922;-76
2022/08/18 01:04:20;;;;;;;;;;;;;;;18.06;100.00;101111.91;1020241;29;19930;-75
2022/08/18 01:04:54;;;;;;;;;;;;;;;18.04;100.00;101113.25;1015997;29;20007;-75
2022/08/18 01:05:32;;;;;;;;;;;;;;;18.01;100.00;101111.88;1019002;29;19930;-75
2022/08/18 01:06:24;;;;;;;;;;;;;;;18.02;100.00;101116.19;1019754;29;21010;-75
2022/08/18 01:06:57;;;;;;;;;;;;;;;18.02;100.00;101121.59;1024185;28;19922;-75
2022/08/18 01:07:31;;;;;;;;;;;;;;;18.03;100.00;101107.03;1021691;29;19923;-75
2022/08/18 01:08:03;;;;;;;;;;;;;;;18.02;100.00;101116.19;1023869;29;20380;-75
2022/08/18 01:08:35;;;;;;;;;;;;;;;18.00;100.00;101117.53;1023795;29;19970;-75
2022/08/18 01:09:07;;;;;;;;;;;;;;;17.98;100.00;101109.69;1023939;29;20409;-75
2022/08/18 01:09:38;;;;;;;;;;;;;;;18.01;100.00;101114.56;1023819;29;19944;-75
2022/08/18 01:10:14;;;;;;;;;;;;;;;18.00;100.00;101115.63;1023817;29;20420;-75
2022/08/18 01:10:46;;;;;;;;;;;;;;;17.97;100.00;101108.06;1023894;29;19922;-75
2022/08/18 01:11:20;;;;;;;;;;;;;;;18.01;100.00;101111.88;1024107;29;19929;-75
2022/08/18 01:11:51;;;;;;;;;;;;;;;18.03;100.00;101117.00;1023596;29;20314;-75
2022/08/18 01:12:23;;;;;;;;;;;;;;;18.06;100.00;101119.19;1023907;29;19966;-75
2022/08/18 01:13:14;;;;;;;;;;;;;;;18.04;100.00;101124.03;1022118;28;19929;-75
2022/08/18 01:13:46;;;;;;;;;;;;;;;18.02;100.00;101110.81;1025293;28;20314;-75
2022/08/18 01:14:18;;;;;;;;;;;;;;;18.02;100.00;101118.88;1024237;28;20140;-75
2022/08/18 01:14:49;;;;;;;;;;;;;;;18.03;100.00;101117.81;1024084;28;19922;-75
2022/08/18 01:15:21;;;;;;;;;;;;;;;17.97;100.00;101121.56;1025801;28;19929;-75
2022/08/18 01:21:49;;;;;;;;;;;;;;;18.02;100.00;101110.00;1022413;29;19990;-75
2022/08/18 01:22:01;;;;;;;;;;;;;;;18.01;100.00;101114.56;1019910;29;20398;-75
2022/08/18 01:22:38;;;;;;;;;;;;;;;18.06;100.00;101116.47;1017305;29;19923;-75
2022/08/18 01:23:11;;;;;;;;;;;;;;;18.04;100.00;101114.06;1019975;29;20307;-75
2022/08/18 01:23:42;;;;;;;;;;;;;;;18.01;100.00;101109.19;1024203;29;19922;-75
2022/08/18 01:24:14;;;;;;;;;;;;;;;18.02;100.00;101115.38;1023580;28;19922;-75
2022/08/18 01:26:01;;;;;;;;;;;;;;;17.98;100.00;101114.28;1021048;28;19926;-75
2022/08/18 01:26:34;;;;;;;;;;;;;;;17.99;100.00;101115.91;1021927;29;19922;-75
2022/08/18 01:27:08;;;;;;;;;;;;;;;18.03;100.00;101123.22;1021687;29;20474;-75
2022/08/18 01:27:40;;;;;;;;;;;;;;;18.01;100.00;101122.66;1023760;29;20020;-75
2022/08/18 01:28:16;;;;;;;;;;;;;;;18.07;100.00;101118.09;1027706;28;19930;-75
2022/08/18 01:28:48;;;;;;;;;;;;;;;18.04;100.00;101114.06;1029553;28;19929;-75
2022/08/18 01:29:20;;;;;;;;;;;;;;;18.07;100.00;101118.09;1028147;28;20021;-75
2022/08/18 01:29:51;;;;;;;;;;;;;;;18.06;100.00;101117.28;1027716;28;19922;-75
2022/08/18 01:30:24;;;;;;;;;;;;;;;17.99;100.00;101122.09;1027650;28;20409;-75
2022/08/18 01:30:57;;;;;;;;;;;;;;;17.99;100.00;101124.81;1027891;28;20301;-75
2022/08/18 01:31:36;;;;;;;;;;;;;;;18.02;100.00;101129.66;1027841;28;19984;-76
2022/08/18 01:32:07;;;;;;;;;;;;;;;17.98;100.00;101125.06;1017461;29;19926;-75
2022/08/18 01:32:40;;;;;;;;;;;;;;;17.99;100.00;101119.41;1019846;28;20351;-75
2022/08/18 01:33:11;;;;;;;;;;;;;;;18.01;100.00;101114.56;1017217;29;19923;-75
2022/08/18 01:33:43;;;;;;;;;;;;;;;18.02;100.00;101115.38;1016086;29;19923;-75
2022/08/18 01:34:14;;;;;;;;;;;;;;;18.01;100.00;101124.53;1016389;29;19923;-75
2022/08/18 01:34:49;;;;;;;;;;;;;;;17.98;100.00;101115.09;1021145;28;19946;-75
2022/08/18 01:35:21;;;;;;;;;;;;;;;17.99;100.00;101116.72;1025720;28;20447;-76
2022/08/18 01:35:54;;;;;;;;;;;;;;;18.04;100.00;101110.53;1024429;28;20294;-76
2022/08/18 01:36:25;;;;;;;;;;;;;;;18.00;100.00;101118.34;1024086;28;19922;-75
2022/08/18 01:36:57;;;;;;;;;;;;;;;18.00;100.00;101117.53;1024404;28;19922;-75
2022/08/18 01:37:28;;;;;;;;;;;;;;;18.02;100.00;101116.19;1026112;28;19989;-75
2022/08/18 01:38:00;;;;;;;;;;;;;;;18.03;100.00;101117.00;1019924;29;20322;-76
2022/08/18 01:38:31;;;;;;;;;;;;;;;17.99;100.00;101115.91;1019737;29;20451;-75
2022/08/18 01:39:04;;;;;;;;;;;;;;;17.98;100.00;101114.28;1020047;29;19930;-76
2022/08/18 01:39:37;;;;;;;;;;;;;;;17.99;100.00;101118.59;1017522;29;19923;-75
2022/08/18 01:40:30;;;;;;;;;;;;;;;17.94;100.00;101111.28;1021020;28;19942;-76
2022/08/18 01:41:22;;;;;;;;;;;;;;;17.94;100.00;101113.19;1021947;28;19929;-75
2022/08/18 01:42:02;;;;;;;;;;;;;;;17.98;100.00;101117.78;1020009;28;20379;-76
2022/08/18 01:42:36;;;;;;;;;;;;;;;17.99;100.00;101114.00;1019561;29;19923;-75
2022/08/18 01:43:07;;;;;;;;;;;;;;;17.99;100.00;101114.00;1016072;29;20471;-76
2022/08/18 01:43:39;;;;;;;;;;;;;;;17.99;100.00;101119.41;1018032;29;19923;-75
2022/08/18 01:44:10;;;;;;;;;;;;;;;18.00;100.00;101115.63;1019505;29;19922;-75
2022/08/18 01:44:43;;;;;;;;;;;;;;;17.99;100.00;101116.72;1020536;29;19930;-75
2022/08/18 01:45:15;;;;;;;;;;;;;;;17.99;100.00;101122.09;1024392;28;20297;-75
2022/08/18 01:45:47;;;;;;;;;;;;;;;17.99;100.00;101111.31;1023961;28;19922;-75
2022/08/18 01:46:19;;;;;;;;;;;;;;;17.99;100.00;101111.31;1025378;28;19922;-75
2022/08/18 01:46:52;;;;;;;;;;;;;;;17.99;100.00;101111.31;1019977;29;19922;-75
2022/08/18 01:47:23;;;;;;;;;;;;;;;17.94;100.00;101108.59;1019854;29;19930;-75
2022/08/18 01:47:55;;;;;;;;;;;;;;;17.95;100.00;101109.41;1015458;29;20018;-75
2022/08/18 01:48:27;;;;;;;;;;;;;;;17.98;100.00;101111.59;1012403;29;19924;-75
2022/08/18 01:48:59;;;;;;;;;;;;;;;18.01;100.00;101109.19;1016144;29;20288;-75
2022/08/18 01:49:31;;;;;;;;;;;;;;;18.02;100.00;101116.19;1016437;29;19930;-75
2022/08/18 01:50:03;;;;;;;;;;;;;;;18.06;100.00;101111.91;1020750;28;19923;-75
2022/08/18 01:50:38;;;;;;;;;;;;;;;18.04;100.00;101110.53;1024093;28;19928;-75
2022/08/18 01:51:11;;;;;;;;;;;;;;;18.07;100.00;101113.53;1019893;29;19923;-76
2022/08/18 01:51:43;;;;;;;;;;;;;;;18.10;100.00;101110.34;1019806;29;19929;-75
2022/08/18 01:52:18;;;;;;;;;;;;;;;18.09;100.00;101106.03;1019632;29;19927;-75
2022/08/18 01:52:52;;;;;;;;;;;;;;;18.09;100.00;101107.91;1021355;29;19930;-75
2022/08/18 01:53:27;;;;;;;;;;;;;;;18.04;100.00;101105.97;1025726;28;20037;-77
2022/08/18 01:53:59;;;;;;;;;;;;;;;18.05;100.00;101102.19;1027835;28;19922;-77
2022/08/18 01:54:31;;;;;;;;;;;;;;;18.00;100.00;101107.56;1023778;29;19922;-77
2022/08/18 01:55:04;;;;;;;;;;;;;;;17.98;100.00;101104.31;1019671;29;20367;-77
2022/08/18 01:55:39;;;;;;;;;;;;;;;18.01;100.00;101109.19;1019829;29;20302;-77
2022/08/18 01:56:11;;;;;;;;;;;;;;;18.03;100.00;101109.72;1017078;29;20437;-77
2022/08/18 01:56:43;;;;;;;;;;;;;;;18.04;100.00;101105.97;1019784;29;20415;-77
2022/08/18 01:57:15;;;;;;;;;;;;;;;18.06;100.00;101117.28;1020905;29;19922;-77
2022/08/18 01:57:46;;;;;;;;;;;;;;;18.10;100.00;101110.34;1024213;28;20398;-77
2022/08/18 01:58:18;;;;;;;;;;;;;;;18.09;100.00;101111.41;1027938;28;19925;-77
2022/08/18 01:58:49;;;;;;;;;;;;;;;18.08;100.00;101115.19;1027519;28;19952;-77
2022/08/18 01:59:25;;;;;;;;;;;;;;;18.09;100.00;101119.50;1023537;29;19922;-77
2022/08/18 01:59:59;;;;;;;;;;;;;;;18.08;100.00;101117.88;1021132;29;19929;-77
2022/08/18 02:00:42;;;;;;;;;;;;;;;18.09;100.00;101114.09;1019784;29;19954;-75
2022/08/18 02:01:14;;;;;;;;;;;;;;;18.02;100.00;101113.50;1022016;28;19931;-75
2022/08/18 02:01:46;;;;;;;;;;;;;;;18.08;100.00;101115.19;1020100;29;19923;-75
2022/08/18 02:02:27;;;;;;;;;;;;;;;17.98;100.00;101112.41;1022189;29;19955;-75
2022/08/18 02:02:59;;;;;;;;;;;;;;;18.04;100.00;101121.31;1019892;29;19959;-75
2022/08/18 02:03:34;;;;;;;;;;;;;;;17.97;100.00;101124.25;1021591;29;20405;-75
2022/08/18 02:04:06;;;;;;;;;;;;;;;17.99;100.00;101119.41;1023804;29;19922;-75
2022/08/18 02:05:02;;;;;;;;;;;;;;;17.95;100.00;101123.69;1018742;29;20021;-75
2022/08/18 02:05:35;;;;;;;;;;;;;;;17.94;100.00;101116.69;1016679;29;20445;-75
2022/08/18 02:06:09;;;;;;;;;;;;;;;17.96;100.00;101124.50;1017965;29;19962;-75
2022/08/18 02:06:44;;;;;;;;;;;;;;;17.97;100.00;101121.56;1020001;29;19923;-75
2022/08/18 02:07:18;;;;;;;;;;;;;;;17.89;100.00;101120.16;1020513;29;19923;-75
2022/08/18 02:07:50;;;;;;;;;;;;;;;17.90;100.00;101120.97;1015439;29;20454;-75
2022/08/18 02:08:24;;;;;;;;;;;;;;;17.91;100.00;101120.72;1017008;29;19923;-75
2022/08/18 02:08:59;;;;;;;;;;;;;;;17.94;100.00;101119.38;1019673;29;19954;-75
2022/08/18 02:09:30;;;;;;;;;;;;;;;17.92;100.00;101122.34;1021059;29;19932;-75
2022/08/18 02:10:05;;;;;;;;;;;;;;;17.96;100.00;101121.81;1023546;28;19930;-75
2022/08/18 02:10:42;;;;;;;;;;;;;;;17.94;100.00;101119.38;1025281;28;19922;-75
2022/08/18 02:11:13;;;;;;;;;;;;;;;17.94;100.00;101116.69;1024565;28;19945;-75
2022/08/18 02:11:45;;;;;;;;;;;;;;;17.95;100.00;101114.81;1024133;28;19922;-75
2022/08/18 02:12:19;;;;;;;;;;;;;;;17.96;100.00;101116.41;1024196;28;19926;-75
2022/08/18 02:12:51;;;;;;;;;;;;;;;17.99;100.00;101122.09;1019318;29;19929;-75
2022/08/18 02:13:22;;;;;;;;;;;;;;;18.00;100.00;101117.53;1019755;29;19923;-75
2022/08/18 02:13:54;;;;;;;;;;;;;;;17.95;100.00;101120.19;1015844;29;19924;-75
2022/08/18 02:14:25;;;;;;;;;;;;;;;17.97;100.00;101116.16;1016039;29;19938;-75
2022/08/18 02:14:57;;;;;;;;;;;;;;;17.95;100.00;101118.31;1019822;29;20062;-75
2022/08/18 02:15:30;;;;;;;;;;;;;;;17.98;100.00;101117.78;1020310;29;20008;-75
2022/08/18 02:16:03;;;;;;;;;;;;;;;17.99;100.00;101116.72;1024122;28;20298;-75
2022/08/18 02:16:34;;;;;;;;;;;;;;;18.00;100.00;101118.34;1023054;29;19969;-75
2022/08/18 02:17:06;;;;;;;;;;;;;;;18.00;100.00;101118.34;1023524;29;19930;-75
2022/08/18 02:17:40;;;;;;;;;;;;;;;17.99;100.00;101115.91;1020114;29;20384;-75
2022/08/18 02:18:12;;;;;;;;;;;;;;;17.97;100.00;101123.44;1015371;29;19923;-75
2022/08/18 02:19:02;;;;;;;;;;;;;;;17.93;100.00;101120.44;1015324;29;19923;-75
2022/08/18 02:19:35;;;;;;;;;;;;;;;17.91;100.00;101119.91;1022292;29;19929;-75
2022/08/18 02:20:08;;;;;;;;;;;;;;;17.90;100.00;101123.66;1021716;29;19923;-75
2022/08/18 02:20:40;;;;;;;;;;;;;;;17.89;100.00;101122.03;1022072;29;19923;-76
2022/08/18 02:21:16;;;;;;;;;;;;;;;17.91;100.00;101122.59;1019653;29;19945;-75
2022/08/18 02:21:50;;;;;;;;;;;;;;;17.90;100.00;101123.66;1015787;29;19930;-75
2022/08/18 02:22:22;;;;;;;;;;;;;;;17.90;100.00;101129.06;1017241;29;19935;-75
2022/08/18 02:22:54;;;;;;;;;;;;;;;17.85;100.00;101126.31;1020135;29;19934;-75
2022/08/18 02:23:25;;;;;;;;;;;;;;;17.84;100.00;101130.09;1020623;29;19923;-75
2022/08/18 02:23:57;;;;;;;;;;;;;;;17.86;100.00;101123.38;1023622;28;19922;-75
2022/08/18 02:24:29;;;;;;;;;;;;;;;17.88;100.00;101131.19;1024261;28;20283;-75
2022/08/18 02:25:00;;;;;;;;;;;;;;;17.84;100.00;101122.00;1023869;28;19923;-75
2022/08/18 02:25:32;;;;;;;;;;;;;;;17.81;100.00;101119.81;1021672;29;19922;-75
2022/08/18 02:26:10;;;;;;;;;;;;;;;17.82;100.00;101121.44;1023502;29;20995;-76
2022/08/18 02:26:42;;;;;;;;;;;;;;;17.78;100.00;101120.31;1023737;29;19923;-75
2022/08/18 02:27:14;;;;;;;;;;;;;;;17.77;100.00;101118.69;1023907;29;19929;-75
2022/08/18 02:27:46;;;;;;;;;;;;;;;17.77;100.00;101127.59;1023385;29;20294;-76
2022/08/18 02:28:17;;;;;;;;;;;;;;;17.76;100.00;101127.84;1023747;29;19931;-75
2022/08/18 02:28:49;;;;;;;;;;;;;;;17.80;100.00;101118.19;1024558;28;19930;-75
2022/08/18 02:29:21;;;;;;;;;;;;;;;17.83;100.00;101120.38;1027902;28;19921;-75
2022/08/18 02:29:52;;;;;;;;;;;;;;;17.84;100.00;101117.44;1027576;28;19926;-75
2022/08/18 02:30:27;;;;;;;;;;;;;;;17.80;100.00;101118.19;1027162;28;20491;-75
2022/08/18 02:31:08;;;;;;;;;;;;;;;17.83;100.00;101123.06;1023842;29;19922;-75
2022/08/18 02:31:41;;;;;;;;;;;;;;;17.78;100.00;101121.13;1019720;29;20486;-75
2022/08/18 02:32:13;;;;;;;;;;;;;;;17.74;100.00;101113.81;1019687;29;20003;-75
2022/08/18 02:32:44;;;;;;;;;;;;;;;17.73;100.00;101117.59;1021834;29;20284;-75
2022/08/18 02:33:16;;;;;;;;;;;;;;;17.72;100.00;101122.16;1023737;28;19922;-75
2022/08/18 02:33:47;;;;;;;;;;;;;;;17.73;100.00;101118.41;1027711;28;19922;-76
2022/08/18 02:34:22;;;;;;;;;;;;;;;17.70;100.00;101112.72;1027293;28;20187;-76
2022/08/18 02:34:54;;;;;;;;;;;;;;;17.69;100.00;101114.59;1027517;28;19930;-75
2022/08/18 02:35:25;;;;;;;;;;;;;;;17.73;100.00;101117.59;1027189;28;19922;-75
2022/08/18 02:35:57;;;;;;;;;;;;;;;17.77;100.00;101119.50;1023822;28;19929;-76
2022/08/18 02:36:28;;;;;;;;;;;;;;;17.78;100.00;101114.94;1023990;28;19923;-76
2022/08/18 02:37:00;;;;;;;;;;;;;;;17.77;100.00;101118.69;1024083;28;19923;-75
2022/08/18 02:37:31;;;;;;;;;;;;;;;17.74;100.00;101117.31;1019674;29;19950;-75
2022/08/18 02:38:03;;;;;;;;;;;;;;;17.76;100.00;101122.47;1019579;29;19923;-75
2022/08/18 02:38:37;;;;;;;;;;;;;;;17.77;100.00;101116.00;1015599;29;20388;-75
2022/08/18 02:39:12;;;;;;;;;;;;;;;17.79;100.00;101119.25;1015577;29;20327;-75
2022/08/18 02:39:44;;;;;;;;;;;;;;;17.73;100.00;101123.78;1019869;29;19923;-75
2022/08/18 02:40:18;;;;;;;;;;;;;;;17.78;100.00;101121.13;1020650;29;19970;-76
2022/08/18 02:40:56;;;;;;;;;;;;;;;17.80;100.00;101120.88;1021064;28;19969;-75
2022/08/18 02:41:28;;;;;;;;;;;;;;;17.82;100.00;101127.66;1019703;29;20470;-75
2022/08/18 02:42:00;;;;;;;;;;;;;;;17.83;100.00;101123.06;1019955;29;20005;-75
2022/08/18 02:42:33;;;;;;;;;;;;;;;17.82;100.00;101124.16;1019829;29;19923;-75
2022/08/18 02:43:06;;;;;;;;;;;;;;;17.82;100.00;101124.16;1021344;29;20342;-75
2022/08/18 02:43:37;;;;;;;;;;;;;;;17.80;100.00;101134.34;1023966;28;19931;-76
2022/08/18 02:44:09;;;;;;;;;;;;;;;17.82;100.00;101127.66;1022723;29;20375;-75
2022/08/18 02:44:41;;;;;;;;;;;;;;;17.83;100.00;101129.28;1024530;29;20374;-75
2022/08/18 02:45:12;;;;;;;;;;;;;;;17.83;100.00;101128.47;1024260;29;20021;-75
2022/08/18 02:45:44;;;;;;;;;;;;;;;17.84;100.00;101125.50;1024754;29;19922;-76
2022/08/18 02:46:15;;;;;;;;;;;;;;;17.81;100.00;101130.59;1024238;29;20444;-76
2022/08/18 02:46:50;;;;;;;;;;;;;;;17.74;100.00;101125.41;1024363;29;19923;-75
2022/08/18 02:47:21;;;;;;;;;;;;;;;17.73;100.00;101122.97;1021468;29;20437;-75
2022/08/18 02:47:53;;;;;;;;;;;;;;;17.73;100.00;101122.97;1024401;29;19930;-75
2022/08/18 02:48:34;;;;;;;;;;;;;;;17.74;100.00;101116.50;1024514;29;19922;-75
2022/08/18 02:49:06;;;;;;;;;;;;;;;17.77;100.00;101116.00;1026093;28;19993;-75
2022/08/18 02:49:38;;;;;;;;;;;;;;;17.78;100.00;101117.63;1029623;28;19922;-75
2022/08/18 02:50:10;;;;;;;;;;;;;;;17.79;100.00;101119.25;1028392;28;19930;-75
2022/08/18 02:50:45;;;;;;;;;;;;;;;17.80;100.00;101123.56;1028379;28;20412;-75
2022/08/18 02:51:17;;;;;;;;;;;;;;;17.79;100.00;101124.63;1025989;28;19934;-75
2022/08/18 02:51:49;;;;;;;;;;;;;;;17.82;100.00;101127.66;1024633;28;19930;-75
2022/08/18 02:52:21;;;;;;;;;;;;;;;17.83;100.00;101123.88;1020450;29;19922;-75
2022/08/18 02:52:53;;;;;;;;;;;;;;;17.82;100.00;101126.84;1016710;29;19938;-75
2022/08/18 02:53:26;;;;;;;;;;;;;;;17.84;100.00;101125.50;1016418;29;19923;-76
2022/08/18 02:53:58;;;;;;;;;;;;;;;17.83;100.00;101123.06;1017397;29;19926;-75
2022/08/18 02:54:29;;;;;;;;;;;;;;;17.83;100.00;101128.47;1023621;28;20025;-75
2022/08/18 02:55:01;;;;;;;;;;;;;;;17.78;100.00;101120.31;1028940;28;19937;-75
2022/08/18 02:55:33;;;;;;;;;;;;;;;17.80;100.00;101129.75;1028502;28;19961;-75
2022/08/18 02:57:12;;;;;;;;;;;;;;;17.79;100.00;101127.31;1024352;29;19949;-75
2022/08/18 02:57:44;;;;;;;;;;;;;;;17.81;100.00;101130.59;1024013;29;19929;-75
2022/08/18 02:58:19;;;;;;;;;;;;;;;17.82;100.00;101122.25;1026635;28;19930;-76
2022/08/18 02:58:54;;;;;;;;;;;;;;;17.85;100.00;101120.94;1028551;28;19922;-75
2022/08/18 02:59:26;;;;;;;;;;;;;;;17.86;100.00;101117.97;1028526;28;20055;-75